sensor_id;sensor_type;location;lat;lon;timestamp;temperature;humidity
10492;DHT22;5293;51.464;-2.566;2023-07-08T00:00:07;22.20;99.90
10492;DHT22;5293;51.464;-2.566;2023-07-08T00:02:35;22.30;99.90
10492;DHT22;5293;51.464;-2.566;2023-07-08T00:05:00;22.30;99.90
10492;DHT22;5293;51.464;-2.566;2023-07-08T00:07:26;22.20;99.90
10492;DHT22;5293;51.464;-2.566;2023-07-08T00:09:51;22.30;99.90
10492;DHT22;5293;51.464;-2.566;2023-07-08T00:12:17;22.30;99.90
10492;DHT22;5293;51.464;-2.566;2023-07-08T00:14:43;22.30;99.90
10492;DHT22;5293;51.464;-2.566;2023-07-08T00:17:11;22.30;99.90
10492;DHT22;5293;51.464;-2.566;2023-07-08T00:19:37;22.20;99.90
10492;DHT22;5293;51.464;-2.566;2023-07-08T00:22:12;22.30;99.90
10492;DHT22;5293;51.464;-2.566;2023-07-08T00:24:40;22.30;99.90
10492;DHT22;5293;51.464;-2.566;2023-07-08T00:27:10;22.30;99.90
10492;DHT22;5293;51.464;-2.566;2023-07-08T00:29:36;22.20;99.90
10492;DHT22;5293;51.464;-2.566;2023-07-08T00:32:07;22.20;99.90
10492;DHT22;5293;51.464;-2.566;2023-07-08T00:34:33;22.10;99.90
10492;DHT22;5293;51.464;-2.566;2023-07-08T00:36:59;22.20;99.90
10492;DHT22;5293;51.464;-2.566;2023-07-08T00:39:24;22.10;99.90
10492;DHT22;5293;51.464;-2.566;2023-07-08T00:41:50;22.10;99.90
10492;DHT22;5293;51.464;-2.566;2023-07-08T00:44:16;22.00;99.90
10492;DHT22;5293;51.464;-2.566;2023-07-08T00:50:05;21.90;99.90
10492;DHT22;5293;51.464;-2.566;2023-07-08T00:52:21;22.00;99.90
10492;DHT22;5293;51.464;-2.566;2023-07-08T00:55:00;22.00;99.90
10492;DHT22;5293;51.464;-2.566;2023-07-08T00:57:31;21.90;99.90
10492;DHT22;5293;51.464;-2.566;2023-07-08T01:00:04;21.90;99.90
10492;DHT22;5293;51.464;-2.566;2023-07-08T01:02:32;22.00;99.90
10492;DHT22;5293;51.464;-2.566;2023-07-08T01:05:06;22.00;99.90
10492;DHT22;5293;51.464;-2.566;2023-07-08T01:07:33;21.90;99.90
10492;DHT22;5293;51.464;-2.566;2023-07-08T01:10:06;21.90;99.90
10492;DHT22;5293;51.464;-2.566;2023-07-08T01:12:37;21.80;99.90
10492;DHT22;5293;51.464;-2.566;2023-07-08T01:15:06;21.90;99.90
10492;DHT22;5293;51.464;-2.566;2023-07-08T01:17:32;22.00;99.90
10492;DHT22;5293;51.464;-2.566;2023-07-08T01:20:02;21.90;99.90
10492;DHT22;5293;51.464;-2.566;2023-07-08T01:22:35;21.90;99.90
10492;DHT22;5293;51.464;-2.566;2023-07-08T01:25:01;21.80;99.90
10492;DHT22;5293;51.464;-2.566;2023-07-08T01:27:34;21.80;99.90
10492;DHT22;5293;51.464;-2.566;2023-07-08T01:30:01;21.70;99.90
10492;DHT22;5293;51.464;-2.566;2023-07-08T01:32:28;21.70;99.90
10492;DHT22;5293;51.464;-2.566;2023-07-08T01:34:57;21.70;99.90
10492;DHT22;5293;51.464;-2.566;2023-07-08T01:37:58;21.70;99.90
10492;DHT22;5293;51.464;-2.566;2023-07-08T01:40:33;21.80;99.90
10492;DHT22;5293;51.464;-2.566;2023-07-08T01:43:01;21.70;99.90
10492;DHT22;5293;51.464;-2.566;2023-07-08T01:45:37;21.70;99.90
10492;DHT22;5293;51.464;-2.566;2023-07-08T01:48:10;21.70;99.90
10492;DHT22;5293;51.464;-2.566;2023-07-08T01:50:40;21.60;99.90
10492;DHT22;5293;51.464;-2.566;2023-07-08T01:53:11;21.60;99.90
10492;DHT22;5293;51.464;-2.566;2023-07-08T01:55:37;21.60;99.90
10492;DHT22;5293;51.464;-2.566;2023-07-08T01:58:03;21.60;99.90
10492;DHT22;5293;51.464;-2.566;2023-07-08T02:00:28;21.60;99.90
10492;DHT22;5293;51.464;-2.566;2023-07-08T02:02:54;21.60;99.90
10492;DHT22;5293;51.464;-2.566;2023-07-08T02:05:20;21.50;99.90
10492;DHT22;5293;51.464;-2.566;2023-07-08T02:07:45;21.50;99.90
10492;DHT22;5293;51.464;-2.566;2023-07-08T02:10:11;21.50;99.90
10492;DHT22;5293;51.464;-2.566;2023-07-08T02:12:37;21.50;99.90
10492;DHT22;5293;51.464;-2.566;2023-07-08T02:15:03;21.50;99.90
10492;DHT22;5293;51.464;-2.566;2023-07-08T02:17:29;21.50;99.90
10492;DHT22;5293;51.464;-2.566;2023-07-08T02:19:55;21.40;99.90
10492;DHT22;5293;51.464;-2.566;2023-07-08T02:22:21;21.50;99.90
10492;DHT22;5293;51.464;-2.566;2023-07-08T02:24:47;21.40;99.90
10492;DHT22;5293;51.464;-2.566;2023-07-08T02:27:13;21.40;99.90
10492;DHT22;5293;51.464;-2.566;2023-07-08T02:29:39;21.40;99.90
10492;DHT22;5293;51.464;-2.566;2023-07-08T02:32:05;21.40;99.90
10492;DHT22;5293;51.464;-2.566;2023-07-08T02:34:31;21.40;99.90
10492;DHT22;5293;51.464;-2.566;2023-07-08T02:36:57;21.40;99.90
10492;DHT22;5293;51.464;-2.566;2023-07-08T02:39:23;21.30;99.90
10492;DHT22;5293;51.464;-2.566;2023-07-08T02:41:49;21.20;99.90
10492;DHT22;5293;51.464;-2.566;2023-07-08T02:44:14;21.30;99.90
10492;DHT22;5293;51.464;-2.566;2023-07-08T02:46:40;21.30;99.90
10492;DHT22;5293;51.464;-2.566;2023-07-08T02:49:06;21.30;99.90
10492;DHT22;5293;51.464;-2.566;2023-07-08T02:51:32;21.30;99.90
10492;DHT22;5293;51.464;-2.566;2023-07-08T02:53:58;21.30;99.90
10492;DHT22;5293;51.464;-2.566;2023-07-08T02:56:24;21.20;99.90
10492;DHT22;5293;51.464;-2.566;2023-07-08T02:58:52;21.30;99.90
10492;DHT22;5293;51.464;-2.566;2023-07-08T03:01:17;21.20;99.90
10492;DHT22;5293;51.464;-2.566;2023-07-08T03:03:47;21.10;99.90
10492;DHT22;5293;51.464;-2.566;2023-07-08T03:06:13;21.20;99.90
10492;DHT22;5293;51.464;-2.566;2023-07-08T03:08:39;21.10;99.90
10492;DHT22;5293;51.464;-2.566;2023-07-08T03:11:06;21.10;99.90
10492;DHT22;5293;51.464;-2.566;2023-07-08T03:13:33;21.20;99.90
10492;DHT22;5293;51.464;-2.566;2023-07-08T03:16:00;21.20;99.90
10492;DHT22;5293;51.464;-2.566;2023-07-08T03:18:27;21.10;99.90
10492;DHT22;5293;51.464;-2.566;2023-07-08T03:20:57;21.10;99.90
10492;DHT22;5293;51.464;-2.566;2023-07-08T03:23:23;21.10;99.90
10492;DHT22;5293;51.464;-2.566;2023-07-08T03:25:49;21.00;99.90
10492;DHT22;5293;51.464;-2.566;2023-07-08T03:28:15;21.00;99.90
10492;DHT22;5293;51.464;-2.566;2023-07-08T03:30:44;21.00;99.90
10492;DHT22;5293;51.464;-2.566;2023-07-08T03:33:11;21.00;99.90
10492;DHT22;5293;51.464;-2.566;2023-07-08T03:35:37;21.00;99.90
10492;DHT22;5293;51.464;-2.566;2023-07-08T03:38:04;20.80;99.90
10492;DHT22;5293;51.464;-2.566;2023-07-08T03:40:30;20.80;99.90
10492;DHT22;5293;51.464;-2.566;2023-07-08T03:42:56;20.80;99.90
10492;DHT22;5293;51.464;-2.566;2023-07-08T03:45:21;20.80;99.90
10492;DHT22;5293;51.464;-2.566;2023-07-08T03:47:47;20.70;99.90
10492;DHT22;5293;51.464;-2.566;2023-07-08T03:50:19;20.70;99.90
10492;DHT22;5293;51.464;-2.566;2023-07-08T03:52:46;20.60;99.90
10492;DHT22;5293;51.464;-2.566;2023-07-08T03:55:12;20.60;99.90
10492;DHT22;5293;51.464;-2.566;2023-07-08T03:57:37;20.60;99.90
10492;DHT22;5293;51.464;-2.566;2023-07-08T04:00:04;20.60;99.90
10492;DHT22;5293;51.464;-2.566;2023-07-08T04:02:30;20.60;99.90
10492;DHT22;5293;51.464;-2.566;2023-07-08T04:04:55;20.70;99.90
10492;DHT22;5293;51.464;-2.566;2023-07-08T04:07:21;20.60;99.90
10492;DHT22;5293;51.464;-2.566;2023-07-08T04:09:46;20.70;99.90
10492;DHT22;5293;51.464;-2.566;2023-07-08T04:12:15;20.70;99.90
10492;DHT22;5293;51.464;-2.566;2023-07-08T04:14:41;20.70;99.90
10492;DHT22;5293;51.464;-2.566;2023-07-08T04:17:09;20.60;99.90
10492;DHT22;5293;51.464;-2.566;2023-07-08T04:19:35;20.60;99.90
10492;DHT22;5293;51.464;-2.566;2023-07-08T04:22:02;20.60;99.90
10492;DHT22;5293;51.464;-2.566;2023-07-08T04:24:28;20.70;99.90
10492;DHT22;5293;51.464;-2.566;2023-07-08T04:26:54;20.70;99.90
10492;DHT22;5293;51.464;-2.566;2023-07-08T04:29:21;20.70;99.90
10492;DHT22;5293;51.464;-2.566;2023-07-08T04:31:47;20.70;99.90
10492;DHT22;5293;51.464;-2.566;2023-07-08T04:34:14;20.80;99.90
10492;DHT22;5293;51.464;-2.566;2023-07-08T04:36:40;20.70;99.90
10492;DHT22;5293;51.464;-2.566;2023-07-08T04:39:07;20.80;99.90
10492;DHT22;5293;51.464;-2.566;2023-07-08T04:41:35;20.80;99.90
10492;DHT22;5293;51.464;-2.566;2023-07-08T04:44:11;20.90;99.90
10492;DHT22;5293;51.464;-2.566;2023-07-08T04:46:45;21.00;99.90
10492;DHT22;5293;51.464;-2.566;2023-07-08T04:49:12;21.10;99.90
10492;DHT22;5293;51.464;-2.566;2023-07-08T04:51:39;21.10;99.90
10492;DHT22;5293;51.464;-2.566;2023-07-08T04:54:06;21.20;99.90
10492;DHT22;5293;51.464;-2.566;2023-07-08T04:59:09;21.30;99.90
10492;DHT22;5293;51.464;-2.566;2023-07-08T05:01:35;21.40;99.90
10492;DHT22;5293;51.464;-2.566;2023-07-08T05:04:02;21.50;99.90
10492;DHT22;5293;51.464;-2.566;2023-07-08T05:06:28;21.50;99.90
10492;DHT22;5293;51.464;-2.566;2023-07-08T05:08:54;21.50;99.90
10492;DHT22;5293;51.464;-2.566;2023-07-08T05:11:20;21.50;99.90
10492;DHT22;5293;51.464;-2.566;2023-07-08T05:13:45;21.60;99.90
10492;DHT22;5293;51.464;-2.566;2023-07-08T05:16:11;21.70;99.90
10492;DHT22;5293;51.464;-2.566;2023-07-08T05:18:37;21.70;99.90
10492;DHT22;5293;51.464;-2.566;2023-07-08T05:21:02;21.70;99.90
10492;DHT22;5293;51.464;-2.566;2023-07-08T05:23:28;21.70;99.90
10492;DHT22;5293;51.464;-2.566;2023-07-08T05:25:54;21.60;99.90
10492;DHT22;5293;51.464;-2.566;2023-07-08T05:28:20;21.50;99.90
10492;DHT22;5293;51.464;-2.566;2023-07-08T05:30:53;21.50;99.90
10492;DHT22;5293;51.464;-2.566;2023-07-08T05:33:20;21.40;99.90
10492;DHT22;5293;51.464;-2.566;2023-07-08T05:35:46;21.40;99.90
10492;DHT22;5293;51.464;-2.566;2023-07-08T05:38:11;21.40;99.90
10492;DHT22;5293;51.464;-2.566;2023-07-08T05:40:37;21.40;99.90
10492;DHT22;5293;51.464;-2.566;2023-07-08T05:43:02;21.40;99.90
10492;DHT22;5293;51.464;-2.566;2023-07-08T05:45:28;21.40;99.90
10492;DHT22;5293;51.464;-2.566;2023-07-08T05:47:54;21.40;99.90
10492;DHT22;5293;51.464;-2.566;2023-07-08T05:50:19;21.30;99.90
10492;DHT22;5293;51.464;-2.566;2023-07-08T05:52:45;21.30;99.90
10492;DHT22;5293;51.464;-2.566;2023-07-08T05:55:10;21.30;99.90
10492;DHT22;5293;51.464;-2.566;2023-07-08T05:57:36;21.30;99.90
10492;DHT22;5293;51.464;-2.566;2023-07-08T06:00:02;21.20;99.90
10492;DHT22;5293;51.464;-2.566;2023-07-08T06:02:28;21.20;99.90
10492;DHT22;5293;51.464;-2.566;2023-07-08T06:04:54;21.20;99.90
10492;DHT22;5293;51.464;-2.566;2023-07-08T06:07:19;21.20;99.90
10492;DHT22;5293;51.464;-2.566;2023-07-08T06:09:45;21.40;99.90
10492;DHT22;5293;51.464;-2.566;2023-07-08T06:12:11;21.30;99.90
10492;DHT22;5293;51.464;-2.566;2023-07-08T06:14:37;21.20;99.90
10492;DHT22;5293;51.464;-2.566;2023-07-08T06:17:04;21.20;99.90
10492;DHT22;5293;51.464;-2.566;2023-07-08T06:19:30;21.20;99.90
10492;DHT22;5293;51.464;-2.566;2023-07-08T06:21:56;21.20;99.90
10492;DHT22;5293;51.464;-2.566;2023-07-08T06:24:21;21.10;99.90
10492;DHT22;5293;51.464;-2.566;2023-07-08T06:26:47;21.10;99.90
10492;DHT22;5293;51.464;-2.566;2023-07-08T06:29:13;21.20;99.90
10492;DHT22;5293;51.464;-2.566;2023-07-08T06:31:38;21.20;99.90
10492;DHT22;5293;51.464;-2.566;2023-07-08T06:34:04;21.30;99.90
10492;DHT22;5293;51.464;-2.566;2023-07-08T06:36:30;21.30;99.90
10492;DHT22;5293;51.464;-2.566;2023-07-08T06:38:56;21.40;99.90
10492;DHT22;5293;51.464;-2.566;2023-07-08T06:41:21;21.40;99.90
10492;DHT22;5293;51.464;-2.566;2023-07-08T06:43:47;21.40;99.90
10492;DHT22;5293;51.464;-2.566;2023-07-08T06:46:13;21.40;99.90
10492;DHT22;5293;51.464;-2.566;2023-07-08T06:48:39;21.20;99.90
10492;DHT22;5293;51.464;-2.566;2023-07-08T06:51:05;21.20;99.90
10492;DHT22;5293;51.464;-2.566;2023-07-08T06:53:30;21.30;99.90
10492;DHT22;5293;51.464;-2.566;2023-07-08T06:55:56;21.30;99.90
10492;DHT22;5293;51.464;-2.566;2023-07-08T06:58:21;21.30;99.90
10492;DHT22;5293;51.464;-2.566;2023-07-08T07:00:47;21.30;99.90
10492;DHT22;5293;51.464;-2.566;2023-07-08T07:03:13;21.30;99.90
10492;DHT22;5293;51.464;-2.566;2023-07-08T07:05:39;21.20;99.90
10492;DHT22;5293;51.464;-2.566;2023-07-08T07:08:05;21.10;99.90
10492;DHT22;5293;51.464;-2.566;2023-07-08T07:10:32;21.30;99.90
10492;DHT22;5293;51.464;-2.566;2023-07-08T07:12:58;21.20;99.90
10492;DHT22;5293;51.464;-2.566;2023-07-08T07:15:23;21.10;99.90
10492;DHT22;5293;51.464;-2.566;2023-07-08T07:17:50;21.10;99.90
10492;DHT22;5293;51.464;-2.566;2023-07-08T07:20:16;21.10;99.90
10492;DHT22;5293;51.464;-2.566;2023-07-08T07:22:42;21.20;99.90
10492;DHT22;5293;51.464;-2.566;2023-07-08T07:25:08;21.30;99.90
10492;DHT22;5293;51.464;-2.566;2023-07-08T07:27:34;21.40;99.90
10492;DHT22;5293;51.464;-2.566;2023-07-08T07:30:00;21.40;99.90
10492;DHT22;5293;51.464;-2.566;2023-07-08T07:32:26;21.40;99.90
10492;DHT22;5293;51.464;-2.566;2023-07-08T07:34:52;21.50;99.90
10492;DHT22;5293;51.464;-2.566;2023-07-08T07:37:20;21.50;99.90
10492;DHT22;5293;51.464;-2.566;2023-07-08T07:39:47;21.40;99.90
10492;DHT22;5293;51.464;-2.566;2023-07-08T07:42:14;21.40;99.90
10492;DHT22;5293;51.464;-2.566;2023-07-08T07:44:40;21.40;99.90
10492;DHT22;5293;51.464;-2.566;2023-07-08T07:47:08;21.40;99.90
10492;DHT22;5293;51.464;-2.566;2023-07-08T07:49:34;21.40;99.90
10492;DHT22;5293;51.464;-2.566;2023-07-08T07:52:00;21.50;99.90
10492;DHT22;5293;51.464;-2.566;2023-07-08T07:54:26;21.50;99.90
10492;DHT22;5293;51.464;-2.566;2023-07-08T07:56:52;21.50;99.90
10492;DHT22;5293;51.464;-2.566;2023-07-08T07:59:17;21.50;99.90
10492;DHT22;5293;51.464;-2.566;2023-07-08T08:01:43;21.40;99.90
10492;DHT22;5293;51.464;-2.566;2023-07-08T08:04:10;21.40;99.90
10492;DHT22;5293;51.464;-2.566;2023-07-08T08:06:36;21.40;99.90
10492;DHT22;5293;51.464;-2.566;2023-07-08T08:09:03;21.30;99.90
10492;DHT22;5293;51.464;-2.566;2023-07-08T08:11:29;21.20;99.90
10492;DHT22;5293;51.464;-2.566;2023-07-08T08:13:55;21.20;99.90
10492;DHT22;5293;51.464;-2.566;2023-07-08T08:16:21;21.20;99.90
10492;DHT22;5293;51.464;-2.566;2023-07-08T08:18:47;21.20;99.90
10492;DHT22;5293;51.464;-2.566;2023-07-08T08:21:13;21.20;99.90
10492;DHT22;5293;51.464;-2.566;2023-07-08T08:23:39;21.20;99.90
10492;DHT22;5293;51.464;-2.566;2023-07-08T08:26:04;21.30;99.90
10492;DHT22;5293;51.464;-2.566;2023-07-08T08:28:30;21.30;99.90
10492;DHT22;5293;51.464;-2.566;2023-07-08T08:30:56;21.10;99.90
10492;DHT22;5293;51.464;-2.566;2023-07-08T08:33:22;21.10;99.90
10492;DHT22;5293;51.464;-2.566;2023-07-08T08:35:48;21.20;99.90
10492;DHT22;5293;51.464;-2.566;2023-07-08T08:38:14;21.20;99.90
10492;DHT22;5293;51.464;-2.566;2023-07-08T08:40:41;21.20;99.90
10492;DHT22;5293;51.464;-2.566;2023-07-08T08:43:16;21.20;99.90
10492;DHT22;5293;51.464;-2.566;2023-07-08T08:46:01;21.20;99.90
10492;DHT22;5293;51.464;-2.566;2023-07-08T08:48:30;21.30;99.90
10492;DHT22;5293;51.464;-2.566;2023-07-08T08:51:06;21.30;99.90
10492;DHT22;5293;51.464;-2.566;2023-07-08T08:53:33;21.30;99.90
10492;DHT22;5293;51.464;-2.566;2023-07-08T08:56:20;21.20;99.90
10492;DHT22;5293;51.464;-2.566;2023-07-08T08:59:27;21.10;99.90
10492;DHT22;5293;51.464;-2.566;2023-07-08T09:01:55;21.10;99.90
10492;DHT22;5293;51.464;-2.566;2023-07-08T09:04:34;21.20;99.90
10492;DHT22;5293;51.464;-2.566;2023-07-08T09:07:08;21.10;99.90
10492;DHT22;5293;51.464;-2.566;2023-07-08T09:09:48;21.10;99.90
10492;DHT22;5293;51.464;-2.566;2023-07-08T09:12:22;21.30;99.90
10492;DHT22;5293;51.464;-2.566;2023-07-08T09:14:50;21.30;99.90
10492;DHT22;5293;51.464;-2.566;2023-07-08T09:17:32;21.40;99.90
10492;DHT22;5293;51.464;-2.566;2023-07-08T09:20:23;21.50;99.90
10492;DHT22;5293;51.464;-2.566;2023-07-08T09:23:32;21.70;99.90
10492;DHT22;5293;51.464;-2.566;2023-07-08T09:28:20;21.80;99.90
10492;DHT22;5293;51.464;-2.566;2023-07-08T09:30:52;22.10;99.90
10492;DHT22;5293;51.464;-2.566;2023-07-08T09:33:18;22.30;99.90
10492;DHT22;5293;51.464;-2.566;2023-07-08T09:35:47;22.40;99.90
10492;DHT22;5293;51.464;-2.566;2023-07-08T09:38:16;22.50;99.90
10492;DHT22;5293;51.464;-2.566;2023-07-08T09:40:47;22.60;99.90
10492;DHT22;5293;51.464;-2.566;2023-07-08T09:43:27;22.60;99.90
10492;DHT22;5293;51.464;-2.566;2023-07-08T09:45:58;22.70;99.90
10492;DHT22;5293;51.464;-2.566;2023-07-08T09:48:26;22.60;99.90
10492;DHT22;5293;51.464;-2.566;2023-07-08T09:50:53;22.70;99.90
10492;DHT22;5293;51.464;-2.566;2023-07-08T09:53:19;22.70;99.90
10492;DHT22;5293;51.464;-2.566;2023-07-08T09:55:46;22.70;99.90
10492;DHT22;5293;51.464;-2.566;2023-07-08T10:00:58;22.70;99.90
10492;DHT22;5293;51.464;-2.566;2023-07-08T10:03:28;22.70;99.90
10492;DHT22;5293;51.464;-2.566;2023-07-08T10:05:56;22.80;99.90
10492;DHT22;5293;51.464;-2.566;2023-07-08T10:08:25;22.80;99.90
10492;DHT22;5293;51.464;-2.566;2023-07-08T10:11:48;22.80;99.90
10492;DHT22;5293;51.464;-2.566;2023-07-08T10:14:01;22.80;99.90
10492;DHT22;5293;51.464;-2.566;2023-07-08T10:16:33;22.70;99.90
10492;DHT22;5293;51.464;-2.566;2023-07-08T10:18:59;22.70;99.90
10492;DHT22;5293;51.464;-2.566;2023-07-08T10:26:45;22.90;99.90
10492;DHT22;5293;51.464;-2.566;2023-07-08T10:35:14;23.10;99.90
10492;DHT22;5293;51.464;-2.566;2023-07-08T10:40:43;23.40;99.90
10492;DHT22;5293;51.464;-2.566;2023-07-08T10:43:18;23.30;99.90
10492;DHT22;5293;51.464;-2.566;2023-07-08T11:07:45;23.00;99.90
10492;DHT22;5293;51.464;-2.566;2023-07-08T11:10:23;23.10;99.90
10492;DHT22;5293;51.464;-2.566;2023-07-08T11:12:58;23.20;99.90
10492;DHT22;5293;51.464;-2.566;2023-07-08T11:15:34;23.30;99.90
10492;DHT22;5293;51.464;-2.566;2023-07-08T11:18:29;23.40;99.90
10492;DHT22;5293;51.464;-2.566;2023-07-08T11:23:41;23.40;99.90
10492;DHT22;5293;51.464;-2.566;2023-07-08T11:28:57;23.40;99.90
10492;DHT22;5293;51.464;-2.566;2023-07-08T11:31:24;23.30;99.90
10492;DHT22;5293;51.464;-2.566;2023-07-08T11:33:52;23.20;99.90
10492;DHT22;5293;51.464;-2.566;2023-07-08T11:36:20;23.30;99.90
10492;DHT22;5293;51.464;-2.566;2023-07-08T11:38:52;23.50;99.90
10492;DHT22;5293;51.464;-2.566;2023-07-08T11:41:21;23.80;99.90
10492;DHT22;5293;51.464;-2.566;2023-07-08T11:43:50;24.10;99.90
10492;DHT22;5293;51.464;-2.566;2023-07-08T11:46:22;24.20;99.90
10492;DHT22;5293;51.464;-2.566;2023-07-08T11:48:52;24.10;99.90
10492;DHT22;5293;51.464;-2.566;2023-07-08T11:51:28;24.20;99.90
10492;DHT22;5293;51.464;-2.566;2023-07-08T11:54:26;24.20;99.90
10492;DHT22;5293;51.464;-2.566;2023-07-08T11:59:26;24.10;99.90
10492;DHT22;5293;51.464;-2.566;2023-07-08T12:02:12;24.00;99.90
10492;DHT22;5293;51.464;-2.566;2023-07-08T12:05:11;23.90;99.90
10492;DHT22;5293;51.464;-2.566;2023-07-08T12:07:41;23.80;99.90
10492;DHT22;5293;51.464;-2.566;2023-07-08T12:10:38;23.60;99.90
10492;DHT22;5293;51.464;-2.566;2023-07-08T12:13:15;23.30;99.90
10492;DHT22;5293;51.464;-2.566;2023-07-08T12:15:41;23.10;99.90
10492;DHT22;5293;51.464;-2.566;2023-07-08T12:18:21;22.90;99.90
10492;DHT22;5293;51.464;-2.566;2023-07-08T12:20:56;22.90;99.90
10492;DHT22;5293;51.464;-2.566;2023-07-08T12:23:23;22.80;99.90
10492;DHT22;5293;51.464;-2.566;2023-07-08T12:25:50;22.70;99.90
10492;DHT22;5293;51.464;-2.566;2023-07-08T12:28:17;22.50;99.90
10492;DHT22;5293;51.464;-2.566;2023-07-08T12:30:45;22.30;99.90
10492;DHT22;5293;51.464;-2.566;2023-07-08T12:33:29;22.20;99.90
10492;DHT22;5293;51.464;-2.566;2023-07-08T12:35:57;22.10;99.90
10492;DHT22;5293;51.464;-2.566;2023-07-08T12:43:36;21.80;99.90
10492;DHT22;5293;51.464;-2.566;2023-07-08T12:46:03;21.70;99.90
10492;DHT22;5293;51.464;-2.566;2023-07-08T12:48:36;21.80;99.90
10492;DHT22;5293;51.464;-2.566;2023-07-08T12:51:09;21.90;99.90
10492;DHT22;5293;51.464;-2.566;2023-07-08T12:53:35;21.90;99.90
10492;DHT22;5293;51.464;-2.566;2023-07-08T12:56:01;22.00;99.90
10492;DHT22;5293;51.464;-2.566;2023-07-08T12:58:31;22.10;99.90
10492;DHT22;5293;51.464;-2.566;2023-07-08T13:01:00;22.00;99.90
10492;DHT22;5293;51.464;-2.566;2023-07-08T13:03:29;21.90;99.90
10492;DHT22;5293;51.464;-2.566;2023-07-08T13:05:57;21.90;99.90
10492;DHT22;5293;51.464;-2.566;2023-07-08T13:08:27;22.00;99.90
10492;DHT22;5293;51.464;-2.566;2023-07-08T13:10:58;22.10;99.90
10492;DHT22;5293;51.464;-2.566;2023-07-08T13:13:34;22.00;99.90
10492;DHT22;5293;51.464;-2.566;2023-07-08T13:16:01;22.10;99.90
10492;DHT22;5293;51.464;-2.566;2023-07-08T13:18:39;22.30;99.90
10492;DHT22;5293;51.464;-2.566;2023-07-08T13:21:06;22.30;99.90
10492;DHT22;5293;51.464;-2.566;2023-07-08T13:23:32;22.50;99.90
10492;DHT22;5293;51.464;-2.566;2023-07-08T13:25:59;22.60;99.90
10492;DHT22;5293;51.464;-2.566;2023-07-08T13:28:30;23.00;99.90
10492;DHT22;5293;51.464;-2.566;2023-07-08T13:31:02;23.30;99.90
10492;DHT22;5293;51.464;-2.566;2023-07-08T13:33:33;23.50;99.90
10492;DHT22;5293;51.464;-2.566;2023-07-08T13:36:02;23.50;99.90
10492;DHT22;5293;51.464;-2.566;2023-07-08T13:38:33;23.50;99.90
10492;DHT22;5293;51.464;-2.566;2023-07-08T13:41:02;23.50;99.90
10492;DHT22;5293;51.464;-2.566;2023-07-08T13:43:31;23.50;99.90
10492;DHT22;5293;51.464;-2.566;2023-07-08T13:45:57;23.20;99.90
10492;DHT22;5293;51.464;-2.566;2023-07-08T13:48:27;23.20;99.90
10492;DHT22;5293;51.464;-2.566;2023-07-08T13:56:26;23.20;99.90
10492;DHT22;5293;51.464;-2.566;2023-07-08T13:59:06;23.30;99.90
10492;DHT22;5293;51.464;-2.566;2023-07-08T14:01:35;23.70;99.90
10492;DHT22;5293;51.464;-2.566;2023-07-08T14:04:01;24.10;99.90
10492;DHT22;5293;51.464;-2.566;2023-07-08T14:06:33;24.30;99.90
10492;DHT22;5293;51.464;-2.566;2023-07-08T14:09:15;24.30;99.90
10492;DHT22;5293;51.464;-2.566;2023-07-08T14:11:42;24.40;99.90
10492;DHT22;5293;51.464;-2.566;2023-07-08T14:14:09;24.60;99.90
10492;DHT22;5293;51.464;-2.566;2023-07-08T14:16:41;24.50;99.90
10492;DHT22;5293;51.464;-2.566;2023-07-08T14:19:16;24.30;99.90
10492;DHT22;5293;51.464;-2.566;2023-07-08T14:21:43;24.20;99.90
10492;DHT22;5293;51.464;-2.566;2023-07-08T14:24:11;24.00;99.90
10492;DHT22;5293;51.464;-2.566;2023-07-08T14:26:38;23.60;99.90
10492;DHT22;5293;51.464;-2.566;2023-07-08T14:29:04;23.10;99.90
10492;DHT22;5293;51.464;-2.566;2023-07-08T14:31:29;23.10;99.90
10492;DHT22;5293;51.464;-2.566;2023-07-08T14:34:05;22.90;99.90
10492;DHT22;5293;51.464;-2.566;2023-07-08T14:36:32;22.70;99.90
10492;DHT22;5293;51.464;-2.566;2023-07-08T14:38:58;22.40;99.90
10492;DHT22;5293;51.464;-2.566;2023-07-08T14:41:24;22.40;99.90
10492;DHT22;5293;51.464;-2.566;2023-07-08T14:43:50;22.40;99.90
10492;DHT22;5293;51.464;-2.566;2023-07-08T14:46:16;22.40;99.90
10492;DHT22;5293;51.464;-2.566;2023-07-08T14:48:42;22.50;99.90
10492;DHT22;5293;51.464;-2.566;2023-07-08T14:51:08;22.50;99.90
10492;DHT22;5293;51.464;-2.566;2023-07-08T14:53:33;22.50;99.90
10492;DHT22;5293;51.464;-2.566;2023-07-08T14:56:01;22.50;99.90
10492;DHT22;5293;51.464;-2.566;2023-07-08T14:58:33;22.40;99.90
10492;DHT22;5293;51.464;-2.566;2023-07-08T15:01:09;22.40;99.90
10492;DHT22;5293;51.464;-2.566;2023-07-08T15:03:37;22.40;99.90
10492;DHT22;5293;51.464;-2.566;2023-07-08T15:06:04;22.30;99.90
10492;DHT22;5293;51.464;-2.566;2023-07-08T15:08:33;22.30;99.90
10492;DHT22;5293;51.464;-2.566;2023-07-08T15:11:00;22.30;99.90
10492;DHT22;5293;51.464;-2.566;2023-07-08T15:13:29;22.10;99.90
10492;DHT22;5293;51.464;-2.566;2023-07-08T15:15:55;22.10;99.90
10492;DHT22;5293;51.464;-2.566;2023-07-08T15:18:21;22.10;99.90
10492;DHT22;5293;51.464;-2.566;2023-07-08T15:20:47;22.10;99.90
10492;DHT22;5293;51.464;-2.566;2023-07-08T15:23:12;22.00;99.90
10492;DHT22;5293;51.464;-2.566;2023-07-08T15:25:41;21.90;99.90
10492;DHT22;5293;51.464;-2.566;2023-07-08T15:28:16;21.90;99.90
10492;DHT22;5293;51.464;-2.566;2023-07-08T15:30:43;21.90;99.90
10492;DHT22;5293;51.464;-2.566;2023-07-08T15:33:12;21.90;99.90
10492;DHT22;5293;51.464;-2.566;2023-07-08T15:35:39;21.80;99.90
10492;DHT22;5293;51.464;-2.566;2023-07-08T15:38:05;21.80;99.90
10492;DHT22;5293;51.464;-2.566;2023-07-08T15:40:33;21.90;99.90
10492;DHT22;5293;51.464;-2.566;2023-07-08T15:43:01;22.20;99.90
10492;DHT22;5293;51.464;-2.566;2023-07-08T15:47:53;22.70;99.90
10492;DHT22;5293;51.464;-2.566;2023-07-08T15:50:22;22.60;99.90
10492;DHT22;5293;51.464;-2.566;2023-07-08T15:52:48;22.50;99.90
10492;DHT22;5293;51.464;-2.566;2023-07-08T15:55:16;22.50;99.90
10492;DHT22;5293;51.464;-2.566;2023-07-08T15:57:52;22.40;99.90
10492;DHT22;5293;51.464;-2.566;2023-07-08T16:00:23;22.70;99.90
10492;DHT22;5293;51.464;-2.566;2023-07-08T16:02:52;23.20;99.90
10492;DHT22;5293;51.464;-2.566;2023-07-08T16:05:19;23.40;99.90
10492;DHT22;5293;51.464;-2.566;2023-07-08T16:07:49;23.60;99.90
10492;DHT22;5293;51.464;-2.566;2023-07-08T16:10:16;23.50;99.90
10492;DHT22;5293;51.464;-2.566;2023-07-08T16:12:44;23.30;99.90
10492;DHT22;5293;51.464;-2.566;2023-07-08T16:15:19;23.10;99.90
10492;DHT22;5293;51.464;-2.566;2023-07-08T16:17:48;22.90;99.90
10492;DHT22;5293;51.464;-2.566;2023-07-08T16:20:21;22.60;99.90
10492;DHT22;5293;51.464;-2.566;2023-07-08T16:22:48;22.50;99.90
10492;DHT22;5293;51.464;-2.566;2023-07-08T16:25:15;22.40;99.90
10492;DHT22;5293;51.464;-2.566;2023-07-08T16:27:47;22.30;99.90
10492;DHT22;5293;51.464;-2.566;2023-07-08T16:30:18;22.20;99.90
10492;DHT22;5293;51.464;-2.566;2023-07-08T16:32:46;22.40;99.90
10492;DHT22;5293;51.464;-2.566;2023-07-08T16:35:14;22.40;99.90
10492;DHT22;5293;51.464;-2.566;2023-07-08T16:37:40;22.40;99.90
10492;DHT22;5293;51.464;-2.566;2023-07-08T16:40:28;22.40;99.90
10492;DHT22;5293;51.464;-2.566;2023-07-08T16:42:56;22.30;99.90
10492;DHT22;5293;51.464;-2.566;2023-07-08T16:45:23;22.30;99.90
10492;DHT22;5293;51.464;-2.566;2023-07-08T16:47:50;22.10;99.90